Time;durP1;ratioP1;P1;durP2;ratioP2;P2;SDS_P1;SDS_P2;PMS_P1;PMS_P2;Temp;Humidity;BMP_temperature;BMP_pressure;BME280_temperature;BME280_humidity;BME280_pressure;Samples;Min_cycle;Max_cycle;Signal;HPM_P1;HPM_P2
2021/03/16 00:00:41;;;;;;;4.25;2.20;;;5.20;95.40;;;;;;4976462;28;20226;-92
2021/03/16 00:03:07;;;;;;;8.75;2.50;;;5.20;95.50;;;;;;4984835;28;20121;-92
2021/03/16 00:05:32;;;;;;;7.10;1.95;;;5.20;95.60;;;;;;4969366;28;20046;-94
2021/03/16 00:07:58;;;;;;;11.02;2.80;;;5.20;95.50;;;;;;4974562;28;20054;-92
2021/03/16 00:10:24;;;;;;;6.20;2.42;;;5.20;95.50;;;;;;4951254;28;20188;-93
2021/03/16 00:12:49;;;;;;;5.90;2.58;;;5.20;95.30;;;;;;4989359;28;20032;-94
2021/03/16 00:15:15;;;;;;;6.13;2.67;;;5.20;95.10;;;;;;5019438;28;20035;-93
2021/03/16 00:17:41;;;;;;;2.85;2.35;;;5.30;94.80;;;;;;4960530;28;20088;-91
2021/03/16 00:20:07;;;;;;;7.88;2.03;;;5.30;94.80;;;;;;5047293;28;20033;-92
2021/03/16 00:22:33;;;;;;;6.80;2.13;;;5.30;94.80;;;;;;4998774;28;20077;-91
2021/03/16 00:24:59;;;;;;;3.70;1.90;;;5.30;94.80;;;;;;4979387;28;20038;-92
2021/03/16 00:27:24;;;;;;;6.03;2.15;;;5.30;94.70;;;;;;4962249;28;20404;-93
2021/03/16 00:29:50;;;;;;;11.77;2.80;;;5.30;94.80;;;;;;4960505;28;20039;-92
2021/03/16 00:32:15;;;;;;;7.30;2.17;;;5.30;94.50;;;;;;4975815;28;20050;-93
2021/03/16 00:34:41;;;;;;;4.13;2.15;;;5.40;94.30;;;;;;4977942;28;20035;-94
2021/03/16 00:37:06;;;;;;;6.32;2.25;;;5.30;94.00;;;;;;4959135;28;20274;-92
2021/03/16 00:39:32;;;;;;;8.45;1.90;;;5.30;94.10;;;;;;4988606;28;20045;-94
2021/03/16 00:41:57;;;;;;;13.00;2.08;;;5.30;94.30;;;;;;4980886;28;20050;-94
2021/03/16 00:44:23;;;;;;;3.25;1.98;;;5.30;94.40;;;;;;4964868;28;20034;-93
2021/03/16 00:46:48;;;;;;;7.90;2.60;;;5.40;94.10;;;;;;4992484;28;20034;-91
2021/03/16 00:49:14;;;;;;;9.32;2.60;;;5.30;94.40;;;;;;4985538;28;20043;-90
2021/03/16 00:51:40;;;;;;;6.47;2.50;;;5.30;94.40;;;;;;4995141;28;20058;-93
2021/03/16 00:54:05;;;;;;;5.30;2.35;;;5.30;94.60;;;;;;4970782;28;20040;-92
2021/03/16 00:56:31;;;;;;;6.15;2.53;;;5.30;94.50;;;;;;4976769;28;20035;-93
2021/03/16 00:58:57;;;;;;;5.55;2.55;;;5.20;94.40;;;;;;4977762;28;20117;-92
2021/03/16 01:01:22;;;;;;;6.22;2.60;;;5.30;94.60;;;;;;4975291;28;20088;-93
2021/03/16 01:03:48;;;;;;;10.75;2.67;;;5.30;94.60;;;;;;4961630;28;20400;-93
2021/03/16 01:06:13;;;;;;;7.10;2.20;;;5.30;94.70;;;;;;4970743;28;20129;-94
2021/03/16 01:08:39;;;;;;;2.83;1.75;;;5.20;94.80;;;;;;4980191;28;20081;-92
2021/03/16 01:11:04;;;;;;;4.43;1.98;;;5.30;94.80;;;;;;4982730;28;20046;-93
2021/03/16 01:13:31;;;;;;;5.88;2.45;;;5.30;94.90;;;;;;4992446;28;20054;-93
2021/03/16 01:15:57;;;;;;;7.25;2.58;;;5.30;94.80;;;;;;4961031;28;20034;-93
2021/03/16 01:18:23;;;;;;;3.28;2.60;;;5.30;94.90;;;;;;4981188;28;20032;-93
2021/03/16 01:20:48;;;;;;;6.05;2.08;;;5.30;95.00;;;;;;5034857;28;20039;-94
2021/03/16 01:23:14;;;;;;;6.63;2.20;;;5.30;94.90;;;;;;4958573;28;20142;-94
2021/03/16 01:25:39;;;;;;;11.50;2.10;;;5.40;94.80;;;;;;5045216;28;20054;-94
2021/03/16 01:28:06;;;;;;;5.13;1.88;;;5.40;94.40;;;;;;4957199;28;20034;-93
2021/03/16 01:30:32;;;;;;;3.70;1.77;;;5.40;94.40;;;;;;4976772;28;20039;-93
2021/03/16 01:32:58;;;;;;;10.35;2.08;;;5.40;94.20;;;;;;4980570;28;20384;-94
2021/03/16 01:35:23;;;;;;;9.40;2.08;;;5.40;93.50;;;;;;4978194;28;20053;-95
2021/03/16 01:37:58;;;;;;;5.20;1.60;;;5.40;93.60;;;;;;4976728;28;20252;-92
2021/03/16 01:40:36;;;;;;;8.40;1.58;;;5.40;93.50;;;;;;4976975;28;20039;-93
2021/03/16 01:43:25;;;;;;;4.43;1.60;;;5.40;93.50;;;;;;4960396;28;20069;-94
2021/03/16 01:45:51;;;;;;;7.82;1.63;;;5.40;93.50;;;;;;4957564;28;20049;-93
2021/03/16 01:48:33;;;;;;;4.25;1.80;;;5.30;93.70;;;;;;4941162;28;20101;-93
2021/03/16 01:51:01;;;;;;;3.38;2.17;;;5.30;93.60;;;;;;4969372;28;20127;-92
2021/03/16 01:53:26;;;;;;;4.18;1.63;;;5.40;93.60;;;;;;4979726;28;20042;-94
2021/03/16 01:55:54;;;;;;;5.93;2.20;;;5.40;93.50;;;;;;4976035;28;20030;-93
2021/03/16 01:58:19;;;;;;;7.35;1.40;;;5.40;93.50;;;;;;4966462;28;20039;-92
2021/03/16 02:00:45;;;;;;;4.82;2.22;;;5.40;93.60;;;;;;4967343;28;20103;-92
2021/03/16 02:03:12;;;;;;;2.00;1.80;;;5.40;93.60;;;;;;4962450;28;20289;-94
2021/03/16 02:05:39;;;;;;;3.65;1.90;;;5.40;93.70;;;;;;4973168;28;20392;-92
2021/03/16 02:08:27;;;;;;;4.75;1.50;;;5.40;93.50;;;;;;4967450;28;20046;-93
2021/03/16 02:11:13;;;;;;;3.90;2.05;;;5.30;92.70;;;;;;4976181;28;20047;-92
2021/03/16 02:13:51;;;;;;;7.88;2.10;;;5.20;92.70;;;;;;4976847;28;20045;-95
2021/03/16 02:16:22;;;;;;;5.57;1.98;;;5.20;92.70;;;;;;4960048;28;20121;-92
2021/03/16 02:18:55;;;;;;;6.05;1.90;;;5.20;92.70;;;;;;4959894;28;20201;-92
2021/03/16 02:21:35;;;;;;;5.32;2.15;;;5.10;92.60;;;;;;5058783;28;20092;-95
2021/03/16 02:24:10;;;;;;;5.97;1.55;;;5.20;92.50;;;;;;4960661;28;20089;-92
2021/03/16 02:26:58;;;;;;;6.95;1.75;;;5.20;92.40;;;;;;5049021;28;20171;-94
2021/03/16 02:29:25;;;;;;;4.20;1.88;;;5.20;92.30;;;;;;4960339;28;20138;-93
2021/03/16 02:32:04;;;;;;;3.70;1.77;;;5.10;92.40;;;;;;5077842;28;20048;-93
2021/03/16 02:34:31;;;;;;;3.70;1.40;;;5.10;92.40;;;;;;5006445;28;20130;-92
2021/03/16 02:36:58;;;;;;;3.72;1.80;;;5.10;92.30;;;;;;4961982;28;20053;-92
2021/03/16 02:39:26;;;;;;;5.32;2.17;;;5.20;92.50;;;;;;4981928;28;20117;-92
2021/03/16 02:41:52;;;;;;;3.97;1.80;;;5.20;92.10;;;;;;5024686;28;20443;-92
2021/03/16 02:44:19;;;;;;;6.22;1.60;;;5.10;92.00;;;;;;4967296;28;20077;-93
2021/03/16 02:46:47;;;;;;;6.88;1.60;;;5.20;92.10;;;;;;4959452;28;20042;-93
2021/03/16 02:49:14;;;;;;;4.13;1.88;;;5.20;91.80;;;;;;4952704;28;20544;-94
2021/03/16 02:51:41;;;;;;;2.65;1.65;;;5.20;91.60;;;;;;4961372;28;20042;-93
2021/03/16 02:54:08;;;;;;;3.95;2.35;;;5.20;91.50;;;;;;4962065;28;20053;-93
2021/03/16 02:56:35;;;;;;;2.80;1.80;;;5.20;91.50;;;;;;4959496;28;20427;-92
2021/03/16 02:59:03;;;;;;;2.88;1.60;;;5.10;91.30;;;;;;4959512;28;20402;-93
2021/03/16 03:01:30;;;;;;;3.33;1.50;;;5.20;91.30;;;;;;5027891;28;20030;-92
2021/03/16 03:03:59;;;;;;;3.03;1.33;;;5.20;91.20;;;;;;5032566;28;20039;-93
2021/03/16 03:06:25;;;;;;;4.05;1.98;;;5.20;91.20;;;;;;4967942;28;20034;-94
2021/03/16 03:08:52;;;;;;;5.40;2.42;;;5.20;91.50;;;;;;4996247;28;20058;-93
2021/03/16 03:11:18;;;;;;;5.10;2.08;;;5.20;91.10;;;;;;5012738;28;20092;-93
2021/03/16 03:13:43;;;;;;;3.17;1.92;;;5.20;91.40;;;;;;4964930;28;20046;-92
2021/03/16 03:16:09;;;;;;;5.43;1.40;;;5.20;91.20;;;;;;4963531;28;20041;-94
2021/03/16 03:18:35;;;;;;;2.38;1.88;;;5.30;91.10;;;;;;5044536;28;20037;-93
2021/03/16 03:21:15;;;;;;;4.05;1.80;;;5.30;91.10;;;;;;5043996;28;20119;-93
2021/03/16 03:23:47;;;;;;;2.38;2.00;;;5.30;91.20;;;;;;5006045;28;20054;-95
2021/03/16 03:26:20;;;;;;;2.30;1.88;;;5.30;91.30;;;;;;4974097;28;20042;-94
2021/03/16 03:28:47;;;;;;;3.78;2.67;;;5.30;92.00;;;;;;4965906;28;20107;-93
2021/03/16 03:31:14;;;;;;;4.93;2.15;;;5.30;91.90;;;;;;4943151;28;20035;-94
2021/03/16 03:33:42;;;;;;;4.05;2.58;;;5.30;92.10;;;;;;5010105;28;20042;-94
2021/03/16 03:36:08;;;;;;;7.53;2.13;;;5.30;92.30;;;;;;4980671;28;20499;-94
2021/03/16 03:38:34;;;;;;;9.60;2.45;;;5.30;92.50;;;;;;4965228;28;20043;-93
2021/03/16 03:41:03;;;;;;;7.18;2.67;;;5.30;92.70;;;;;;4950908;28;20085;-93
2021/03/16 03:43:30;;;;;;;6.10;3.03;;;5.40;92.80;;;;;;4965025;28;20047;-93
2021/03/16 03:45:57;;;;;;;18.70;3.65;;;5.40;92.90;;;;;;4978701;28;20084;-94
2021/03/16 03:48:27;;;;;;;9.85;3.42;;;5.40;92.90;;;;;;4974467;28;20042;-95
2021/03/16 03:50:56;;;;;;;5.30;2.72;;;5.40;92.90;;;;;;4962354;28;20412;-94
2021/03/16 03:53:23;;;;;;;4.22;2.42;;;5.40;92.90;;;;;;4962429;28;20132;-92
2021/03/16 03:55:50;;;;;;;9.07;2.78;;;5.40;93.00;;;;;;4970527;28;20030;-94
2021/03/16 03:58:18;;;;;;;14.75;4.47;;;5.40;92.90;;;;;;5044457;28;20052;-94
2021/03/16 04:00:43;;;;;;;11.48;3.05;;;5.30;92.90;;;;;;4997964;28;20313;-94
2021/03/16 04:03:10;;;;;;;11.73;3.00;;;5.30;93.00;;;;;;4961869;28;20104;-94
2021/03/16 04:05:36;;;;;;;7.78;3.13;;;5.30;92.80;;;;;;4999372;28;20064;-93
2021/03/16 04:08:04;;;;;;;6.85;3.22;;;5.30;92.80;;;;;;4992836;28;20431;-93
2021/03/16 04:10:30;;;;;;;7.68;3.00;;;5.30;92.70;;;;;;4961987;28;20096;-92
2021/03/16 04:12:56;;;;;;;10.75;3.22;;;5.40;92.70;;;;;;4961795;28;20042;-93
2021/03/16 04:15:23;;;;;;;9.35;3.00;;;5.30;92.90;;;;;;4960874;28;20125;-93
2021/03/16 04:17:49;;;;;;;8.90;3.33;;;5.30;92.70;;;;;;4958983;28;20109;-93
2021/03/16 04:20:20;;;;;;;11.45;3.25;;;5.20;92.80;;;;;;4959312;28;20035;-94
2021/03/16 04:22:46;;;;;;;10.52;3.03;;;5.20;92.70;;;;;;4963276;28;20031;-93
2021/03/16 04:25:12;;;;;;;13.50;3.08;;;5.10;92.50;;;;;;4967707;28;20050;-94
2021/03/16 04:27:38;;;;;;;12.88;4.10;;;5.20;92.70;;;;;;4961169;28;20047;-93
2021/03/16 04:30:06;;;;;;;11.63;4.03;;;5.20;92.70;;;;;;4972542;28;20129;-88
2021/03/16 04:32:32;;;;;;;8.32;2.67;;;5.10;92.50;;;;;;4975416;28;20073;-94
2021/03/16 04:34:57;;;;;;;9.88;3.38;;;5.10;92.70;;;;;;4971899;28;20077;-93
2021/03/16 04:37:23;;;;;;;10.57;3.55;;;5.10;92.90;;;;;;4969744;28;20082;-95
2021/03/16 04:39:48;;;;;;;6.82;2.50;;;5.10;92.60;;;;;;4951543;28;20039;-95
2021/03/16 04:42:14;;;;;;;12.38;3.17;;;5.10;92.60;;;;;;4959407;28;20043;-95
2021/03/16 04:44:39;;;;;;;7.22;2.97;;;5.10;92.30;;;;;;4984236;28;20119;-94
2021/03/16 04:47:05;;;;;;;12.77;3.67;;;5.00;92.50;;;;;;4963231;28;20381;-94
2021/03/16 04:49:31;;;;;;;11.43;2.97;;;5.10;92.50;;;;;;4959266;28;20039;-95
2021/03/16 04:51:56;;;;;;;10.88;4.70;;;5.00;92.40;;;;;;4963036;28;20039;-95
2021/03/16 04:54:22;;;;;;;12.25;3.00;;;5.00;92.50;;;;;;4980481;28;20042;-94
2021/03/16 04:56:48;;;;;;;7.00;2.58;;;5.00;92.20;;;;;;4971262;28;20466;-94
2021/03/16 04:59:13;;;;;;;7.93;2.75;;;5.00;92.30;;;;;;4960628;28;20153;-93
2021/03/16 05:01:39;;;;;;;10.88;3.70;;;5.00;92.30;;;;;;5007065;28;20046;-93
2021/03/16 05:04:16;;;;;;;6.28;2.83;;;5.00;92.50;;;;;;4971922;28;20107;-94
2021/03/16 05:06:44;;;;;;;7.28;3.55;;;5.00;92.40;;;;;;4976210;28;20038;-94
2021/03/16 05:09:12;;;;;;;8.40;3.33;;;5.00;92.20;;;;;;4971290;28;20049;-93
2021/03/16 05:11:40;;;;;;;4.60;2.38;;;4.90;92.20;;;;;;4962352;28;20043;-94
2021/03/16 05:14:06;;;;;;;5.40;2.50;;;4.80;92.60;;;;;;4961329;28;20130;-93
2021/03/16 05:16:32;;;;;;;10.48;3.60;;;4.80;92.30;;;;;;4960278;28;20126;-93
2021/03/16 05:18:58;;;;;;;9.63;3.42;;;4.80;92.50;;;;;;4961523;28;20050;-93
2021/03/16 05:21:24;;;;;;;9.68;3.45;;;4.80;92.50;;;;;;4965750;28;20046;-93
2021/03/16 05:23:49;;;;;;;7.45;3.50;;;4.80;92.60;;;;;;4977368;28;20188;-93
2021/03/16 05:26:15;;;;;;;8.82;3.30;;;4.80;92.60;;;;;;4992057;28;20046;-93
2021/03/16 05:28:40;;;;;;;7.97;3.40;;;4.80;92.60;;;;;;4969743;28;20042;-93
2021/03/16 05:31:06;;;;;;;8.27;3.28;;;4.90;92.60;;;;;;4971525;28;20039;-93
2021/03/16 05:33:34;;;;;;;13.43;4.05;;;4.90;92.50;;;;;;4974521;28;20770;-94
2021/03/16 05:36:00;;;;;;;5.20;2.75;;;4.90;92.30;;;;;;4960006;28;20043;-93
2021/03/16 05:38:25;;;;;;;9.20;3.28;;;4.90;92.30;;;;;;4972016;28;20042;-94
2021/03/16 05:40:56;;;;;;;8.75;3.25;;;4.90;92.30;;;;;;4962254;28;20054;-94
2021/03/16 05:43:22;;;;;;;6.63;3.67;;;4.90;92.30;;;;;;4996382;28;20168;-93
2021/03/16 05:45:56;;;;;;;19.23;3.63;;;4.90;92.20;;;;;;5040494;28;20450;-93
2021/03/16 05:48:31;;;;;;;10.48;3.50;;;4.90;92.10;;;;;;5023767;28;20035;-93
2021/03/16 05:51:01;;;;;;;11.05;3.60;;;4.90;92.40;;;;;;5071095;28;20438;-94
2021/03/16 05:53:27;;;;;;;9.50;3.30;;;4.80;92.40;;;;;;5065897;28;20043;-93
2021/03/16 05:55:54;;;;;;;14.70;4.10;;;4.80;92.50;;;;;;5051777;28;20063;-92
2021/03/16 05:58:22;;;;;;;6.32;3.50;;;4.80;92.40;;;;;;4988396;28;20038;-93
2021/03/16 06:00:48;;;;;;;9.27;3.25;;;4.80;92.60;;;;;;5043215;28;20034;-93
2021/03/16 06:03:36;;;;;;;7.53;3.40;;;4.80;92.50;;;;;;5043971;28;20424;-92
2021/03/16 06:06:03;;;;;;;6.88;3.10;;;4.90;92.40;;;;;;5042385;28;20042;-93
2021/03/16 06:08:35;;;;;;;10.50;3.42;;;4.90;92.20;;;;;;4971649;28;20104;-92
2021/03/16 06:11:01;;;;;;;4.97;2.67;;;4.90;92.10;;;;;;4964173;28;20046;-94
2021/03/16 06:13:50;;;;;;;12.95;3.90;;;4.90;92.10;;;;;;5062551;28;20042;-92
2021/03/16 06:16:19;;;;;;;8.45;3.42;;;4.90;92.40;;;;;;4961900;28;20054;-93
2021/03/16 06:18:46;;;;;;;12.35;4.60;;;4.90;92.30;;;;;;5069306;28;20114;-92
2021/03/16 06:21:21;;;;;;;8.90;3.30;;;4.90;92.10;;;;;;5077205;28;20034;-92
2021/03/16 06:24:01;;;;;;;4.97;3.20;;;4.90;92.10;;;;;;5077573;28;20125;-93
2021/03/16 06:26:30;;;;;;;8.05;3.72;;;4.90;91.90;;;;;;4947507;28;20038;-93
2021/03/16 06:29:06;;;;;;;9.13;3.63;;;4.80;92.20;;;;;;4981356;28;20457;-94
2021/03/16 06:31:32;;;;;;;7.20;3.30;;;4.90;92.00;;;;;;4982523;28;20265;-93
2021/03/16 06:33:58;;;;;;;7.65;3.78;;;4.90;91.90;;;;;;4982711;28;20133;-93
2021/03/16 06:36:27;;;;;;;7.90;3.20;;;4.90;91.70;;;;;;4981840;28;20297;-93
2021/03/16 06:38:53;;;;;;;11.23;3.38;;;4.90;91.60;;;;;;4978983;28;20431;-93
2021/03/16 06:41:21;;;;;;;10.85;4.10;;;4.90;91.60;;;;;;5080982;28;20038;-92
2021/03/16 06:43:55;;;;;;;6.40;3.25;;;4.90;91.50;;;;;;5080333;28;20034;-94
2021/03/16 06:46:36;;;;;;;10.77;5.47;;;4.90;92.00;;;;;;4979054;28;20046;-93
2021/03/16 06:49:12;;;;;;;7.50;3.80;;;4.90;91.50;;;;;;4981618;28;20038;-93
2021/03/16 06:51:37;;;;;;;10.18;4.47;;;5.00;91.50;;;;;;4981842;28;20038;-92
2021/03/16 06:54:08;;;;;;;12.82;3.42;;;5.00;91.30;;;;;;4982109;28;20038;-93
2021/03/16 06:56:34;;;;;;;7.28;3.25;;;5.00;91.20;;;;;;4970064;28;20153;-92
2021/03/16 06:58:59;;;;;;;7.70;3.03;;;5.00;91.10;;;;;;4962373;28;20063;-92
2021/03/16 07:01:36;;;;;;;9.10;3.55;;;5.00;91.10;;;;;;4974025;28;20304;-93
2021/03/16 07:04:15;;;;;;;10.70;3.88;;;5.10;90.80;;;;;;4969401;28;20050;-92
2021/03/16 07:06:42;;;;;;;9.88;2.78;;;5.10;91.00;;;;;;4974512;28;20628;-92
2021/03/16 07:09:11;;;;;;;5.97;2.45;;;5.20;90.90;;;;;;4962201;28;20323;-93
2021/03/16 07:11:40;;;;;;;11.35;3.00;;;5.20;90.70;;;;;;4962086;28;20053;-92
2021/03/16 07:14:06;;;;;;;10.25;3.75;;;5.20;90.40;;;;;;4962346;28;20404;-93
2021/03/16 07:16:33;;;;;;;7.88;3.15;;;5.20;90.70;;;;;;4980215;28;20060;-93
2021/03/16 07:19:03;;;;;;;9.13;3.05;;;5.20;90.70;;;;;;4982037;28;20368;-93
2021/03/16 07:21:38;;;;;;;5.38;3.40;;;5.10;90.50;;;;;;4967440;28;20134;-94
2021/03/16 07:24:09;;;;;;;5.25;2.80;;;5.00;90.60;;;;;;5063281;28;20327;-93
2021/03/16 07:26:36;;;;;;;6.60;3.28;;;5.10;90.90;;;;;;4962157;28;20128;-93
2021/03/16 07:29:07;;;;;;;8.95;3.30;;;5.10;90.60;;;;;;4976913;28;20045;-93
2021/03/16 07:31:38;;;;;;;4.68;2.58;;;5.10;90.90;;;;;;4980528;28;20045;-94
2021/03/16 07:34:06;;;;;;;7.38;2.63;;;5.20;90.80;;;;;;4977187;28;20053;-93
2021/03/16 07:36:37;;;;;;;8.82;3.45;;;5.20;90.70;;;;;;4962407;28;20388;-93
2021/03/16 07:39:05;;;;;;;4.65;2.70;;;5.30;90.80;;;;;;4961694;28;20104;-93
2021/03/16 07:41:32;;;;;;;11.40;3.10;;;5.40;90.40;;;;;;4961813;28;20384;-93
2021/03/16 07:44:18;;;;;;;7.53;3.05;;;5.40;90.30;;;;;;4961839;28;20369;-94
2021/03/16 07:46:53;;;;;;;11.63;2.65;;;5.40;90.50;;;;;;4975434;28;20050;-94
2021/03/16 07:49:33;;;;;;;6.97;2.85;;;5.50;90.50;;;;;;4978507;28;20046;-94
2021/03/16 07:51:59;;;;;;;4.60;2.85;;;5.60;90.20;;;;;;4962422;28;20722;-94
2021/03/16 07:54:39;;;;;;;11.25;3.83;;;5.70;90.00;;;;;;4961813;28;20308;-94
2021/03/16 07:57:07;;;;;;;6.47;2.78;;;5.70;89.90;;;;;;4961944;28;20058;-92
2021/03/16 07:59:37;;;;;;;7.95;3.78;;;5.80;89.90;;;;;;4968002;28;20056;-92
2021/03/16 08:02:03;;;;;;;6.28;2.63;;;5.80;89.80;;;;;;4971399;28;20424;-95
2021/03/16 08:04:47;;;;;;;7.32;2.85;;;5.80;90.00;;;;;;4973478;28;20034;-93
2021/03/16 08:07:23;;;;;;;6.00;2.35;;;5.80;90.00;;;;;;4961567;28;20035;-94
2021/03/16 08:09:52;;;;;;;7.18;3.30;;;5.80;89.60;;;;;;4958405;28;20046;-91
2021/03/16 08:12:23;;;;;;;5.75;3.50;;;5.80;89.60;;;;;;4942391;29;20035;-93
2021/03/16 08:14:48;;;;;;;5.70;3.63;;;5.80;88.50;;;;;;4953985;28;20046;-92
2021/03/16 08:17:31;;;;;;;5.60;3.10;;;5.80;88.70;;;;;;4972412;28;20042;-93
2021/03/16 08:20:00;;;;;;;4.53;2.30;;;5.80;89.30;;;;;;4981875;28;20046;-94
2021/03/16 08:22:27;;;;;;;4.18;3.53;;;5.80;88.80;;;;;;4981342;28;20119;-93
2021/03/16 08:24:59;;;;;;;7.75;2.85;;;5.90;88.60;;;;;;4964358;28;20560;-95
2021/03/16 08:27:27;;;;;;;8.15;2.97;;;6.00;87.30;;;;;;4972842;28;20490;-95
2021/03/16 08:29:52;;;;;;;7.38;3.33;;;6.00;87.90;;;;;;4980737;28;20078;-94
2021/03/16 08:32:20;;;;;;;5.72;3.30;;;6.00;87.30;;;;;;4976273;28;20341;-94
2021/03/16 08:34:47;;;;;;;8.65;3.17;;;6.10;87.20;;;;;;4976693;28;20038;-94
2021/03/16 08:37:40;;;;;;;5.63;3.20;;;6.10;86.10;;;;;;4980472;28;20312;-96
2021/03/16 08:40:08;;;;;;;6.50;3.70;;;6.20;86.70;;;;;;4995340;28;20092;-94
2021/03/16 08:42:34;;;;;;;5.85;2.95;;;6.20;85.50;;;;;;4964231;28;20669;-92
2021/03/16 08:44:59;;;;;;;4.80;2.95;;;6.20;86.60;;;;;;4979854;28;20088;-94
2021/03/16 08:47:28;;;;;;;10.57;5.05;;;6.30;85.30;;;;;;4980380;28;20065;-93
2021/03/16 08:49:58;;;;;;;10.63;4.65;;;6.40;85.20;;;;;;4976895;28;20046;-94
2021/03/16 08:52:31;;;;;;;11.07;5.75;;;6.40;85.90;;;;;;4960566;28;20035;-93
2021/03/16 08:54:59;;;;;;;13.60;5.55;;;6.40;86.20;;;;;;4960953;28;20384;-92
2021/03/16 08:57:29;;;;;;;8.25;6.30;;;6.50;86.50;;;;;;4960634;28;20038;-94
2021/03/16 09:00:30;;;;;;;10.27;6.88;;;6.50;86.00;;;;;;4960895;28;20047;-94
2021/03/16 09:03:37;;;;;;;9.68;5.35;;;6.60;84.90;;;;;;5058409;28;20565;-94
2021/03/16 09:06:24;;;;;;;12.35;4.78;;;6.60;84.40;;;;;;5042109;28;20050;-94
2021/03/16 09:13:02;;;;;;;11.60;4.50;;;6.70;85.10;;;;;;4947521;29;20040;-94
2021/03/16 09:15:54;;;;;;;7.53;5.50;;;6.90;84.10;;;;;;4971467;28;20413;-93
2021/03/16 09:21:42;;;;;;;14.70;6.05;;;6.90;83.00;;;;;;4937038;28;20546;-93
2021/03/16 09:28:35;;;;;;;;;;;;;;;;;;;;;
2021/03/16 09:41:17;;;;;;;;;;;;;;;;;;;;;
2021/03/16 09:54:43;;;;;;;;;;;;;;;;;;;;;
2021/03/16 09:58:18;;;;;;;6.05;4.25;;;6.90;82.10;;;;;;4988940;28;20103;-91
2021/03/16 10:07:52;;;;;;;27.95;13.60;;;7.00;80.70;;;;;;5040848;28;20056;-93
2021/03/16 10:10:47;;;;;;;91.18;40.33;;;7.00;81.40;;;;;;5023053;28;20120;-93
2021/03/16 10:14:13;;;;;;;25.17;13.05;;;6.90;80.40;;;;;;4987001;28;20125;-95
2021/03/16 10:17:26;;;;;;;13.30;7.20;;;6.80;79.90;;;;;;4991457;28;20834;-94
2021/03/16 10:20:20;;;;;;;;;;;6.90;80.30;;;;;;5017438;28;20038;-94
2021/03/16 10:26:37;;;;;;;12.25;4.43;;;7.00;80.40;;;;;;4960478;28;20048;-94
2021/03/16 10:29:28;;;;;;;13.23;4.05;;;7.10;80.00;;;;;;4967078;28;20072;-94
2021/03/16 10:32:16;;;;;;;5.40;3.90;;;7.20;78.00;;;;;;4977932;28;20053;-94
2021/03/16 10:34:41;;;;;;;7.75;3.47;;;7.20;78.10;;;;;;4963132;28;20286;-94
2021/03/16 10:37:42;;;;;;;8.20;3.58;;;7.20;78.30;;;;;;4962787;28;20047;-94
2021/03/16 10:40:09;;;;;;;7.78;3.33;;;7.20;78.60;;;;;;4962503;28;20045;-93
2021/03/16 10:42:48;;;;;;;5.97;2.95;;;7.30;78.60;;;;;;4963331;28;20416;-93
2021/03/16 10:45:20;;;;;;;3.97;3.30;;;7.30;78.50;;;;;;4973726;28;20112;-95
2021/03/16 10:48:01;;;;;;;7.47;3.05;;;7.30;76.70;;;;;;4982584;28;20041;-96
2021/03/16 10:50:27;;;;;;;7.22;2.92;;;7.20;77.00;;;;;;4981844;28;20512;-94
2021/03/16 10:52:54;;;;;;;9.00;3.67;;;7.30;77.40;;;;;;4982424;28;20046;-95
2021/03/16 10:56:09;;;;;;;5.03;3.17;;;7.40;77.90;;;;;;4982031;28;20038;-94
2021/03/16 11:01:29;;;;;;;3.97;2.80;;;7.40;77.00;;;;;;4998580;28;20037;-94
2021/03/16 11:03:58;;;;;;;5.97;3.45;;;7.50;76.80;;;;;;4982228;28;20038;-95
2021/03/16 11:07:24;;;;;;;4.75;2.80;;;7.40;76.50;;;;;;4981901;28;20042;-94
2021/03/16 11:13:47;;;;;;;4.28;2.97;;;7.40;77.90;;;;;;4980070;28;20056;-95
2021/03/16 11:16:16;;;;;;;7.53;3.00;;;7.60;76.40;;;;;;4970654;28;20035;-94
2021/03/16 11:22:22;;;;;;;5.85;2.83;;;7.70;75.60;;;;;;4902594;28;20124;-93
2021/03/16 11:25:12;;;;;;;7.23;3.20;;;7.70;75.70;;;;;;5019433;28;20038;-93
2021/03/16 11:27:37;;;;;;;6.95;3.22;;;7.80;75.80;;;;;;4991835;28;20034;-94
2021/03/16 11:30:08;;;;;;;10.70;3.85;;;7.80;76.70;;;;;;4985533;28;20769;-93
2021/03/16 11:32:46;;;;;;;8.35;3.78;;;7.80;76.20;;;;;;4990315;28;20396;-95
2021/03/16 11:42:36;;;;;;;6.55;3.85;;;7.70;76.80;;;;;;4963704;28;20404;-91
2021/03/16 11:45:07;;;;;;;8.63;4.00;;;7.70;76.80;;;;;;5039192;28;20037;-91
2021/03/16 11:47:36;;;;;;;13.73;4.13;;;7.80;76.90;;;;;;4978296;28;20075;-93
2021/03/16 11:50:03;;;;;;;9.57;3.47;;;7.70;77.60;;;;;;4942621;29;20039;-92
2021/03/16 11:52:28;;;;;;;5.95;3.33;;;7.80;77.80;;;;;;4974624;28;20035;-94
2021/03/16 11:55:08;;;;;;;5.40;3.33;;;7.80;76.60;;;;;;4955478;28;20109;-93
2021/03/16 11:58:15;;;;;;;4.75;2.58;;;7.90;76.20;;;;;;4991232;28;20038;-95
2021/03/16 12:00:46;;;;;;;7.18;3.17;;;8.10;75.60;;;;;;4967028;28;20050;-95
2021/03/16 12:03:12;;;;;;;6.15;2.75;;;8.30;74.60;;;;;;4988504;28;20056;-94
2021/03/16 12:05:38;;;;;;;8.50;3.00;;;8.30;75.20;;;;;;4961821;28;20038;-93
2021/03/16 12:08:04;;;;;;;11.25;2.80;;;8.40;74.90;;;;;;4961618;28;20137;-94
2021/03/16 12:11:18;;;;;;;;;;;;;;;;;;;;;
2021/03/16 12:13:54;;;;;;;6.97;3.42;;;8.40;75.10;;;;;;4978538;28;20061;-93
2021/03/16 12:16:20;;;;;;;7.85;2.63;;;8.30;75.30;;;;;;4995333;28;20046;-95
2021/03/16 12:22:02;;;;;;;6.60;3.22;;;8.30;73.80;;;;;;4997590;28;20054;-94
2021/03/16 12:24:49;;;;;;;;;;;;;;;;;;;;;
2021/03/16 12:27:26;;;;;;;9.82;3.42;;;8.40;75.40;;;;;;4978358;28;20443;-94
2021/03/16 12:29:51;;;;;;;8.30;3.50;;;8.50;75.80;;;;;;4993768;28;20038;-94
2021/03/16 12:32:17;;;;;;;9.77;3.85;;;8.50;75.50;;;;;;5006414;28;20103;-94
2021/03/16 12:34:58;;;;;;;11.90;4.47;;;8.50;76.20;;;;;;4971841;28;20043;-94
2021/03/16 12:37:31;;;;;;;9.90;3.20;;;8.50;76.10;;;;;;5025570;28;20040;-93
2021/03/16 12:40:29;;;;;;;9.32;3.00;;;8.50;75.50;;;;;;4980313;28;20126;-94
2021/03/16 12:43:07;;;;;;;8.70;3.80;;;8.50;75.50;;;;;;4968978;28;20050;-94
2021/03/16 12:45:55;;;;;;;6.07;3.88;;;8.50;75.30;;;;;;5008082;28;20064;-94
2021/03/16 12:48:24;;;;;;;6.90;3.92;;;8.50;75.20;;;;;;5061461;28;20059;-94
2021/03/16 12:51:33;;;;;;;7.63;5.00;;;8.50;76.10;;;;;;5020231;28;20125;-95
2021/03/16 12:54:06;;;;;;;6.60;3.92;;;8.40;75.70;;;;;;4980179;28;20046;-95
2021/03/16 12:56:40;;;;;;;;;;;8.30;75.60;;;;;;4969882;28;20404;-94
2021/03/16 12:59:11;;;;;;;8.20;3.65;;;8.40;75.00;;;;;;5060173;28;19981;-92
2021/03/16 13:02:04;;;;;;;7.15;3.42;;;8.40;75.10;;;;;;5011607;28;20099;-94
2021/03/16 13:04:33;;;;;;;10.10;3.42;;;8.50;76.00;;;;;;4961605;28;20350;-94
2021/03/16 13:07:33;;;;;;;6.38;2.85;;;8.60;74.60;;;;;;4960374;28;20039;-95
2021/03/16 13:09:58;;;;;;;7.35;3.17;;;8.60;74.50;;;;;;4973795;28;20401;-94
2021/03/16 13:12:37;;;;;;;;;;;;;;;;;;;;;
2021/03/16 13:15:17;;;;;;;11.07;3.67;;;8.70;73.90;;;;;;5043771;28;20681;-94
2021/03/16 13:18:21;;;;;;;9.40;3.22;;;8.70;75.40;;;;;;5046498;28;20067;-94
2021/03/16 13:20:52;;;;;;;;;;;8.70;74.90;;;;;;4983767;28;20038;-93
2021/03/16 13:24:02;;;;;;;4.47;2.72;;;8.70;74.10;;;;;;5035025;28;19934;-94
2021/03/16 13:27:09;;;;;;;13.45;3.83;;;8.60;74.80;;;;;;4960980;28;20055;-94
2021/03/16 13:30:00;;;;;;;8.20;2.70;;;8.60;75.00;;;;;;4977588;28;20459;-93
2021/03/16 13:32:34;;;;;;;7.25;2.55;;;8.60;74.40;;;;;;5038456;28;20375;-94
2021/03/16 13:38:38;;;;;;;6.60;2.80;;;8.70;74.00;;;;;;5020799;28;20087;-94
2021/03/16 13:55:41;;;;;;;;;;;;;;;;;;;;;
2021/03/16 14:06:05;;;;;;;2.20;1.40;;;9.40;64.70;;;;;;4966849;29;20139;-96
2021/03/16 14:08:12;;;;;;;8.82;3.35;;;9.50;65.60;;;;;;4968527;28;20033;-95
2021/03/16 14:10:43;;;;;;;6.07;1.52;;;9.60;67.30;;;;;;5016946;28;20034;-94
2021/03/16 14:16:23;;;;;;;3.42;1.50;;;9.70;67.10;;;;;;5071121;28;20024;-96
2021/03/16 14:19:03;;;;;;;3.58;1.05;;;9.60;66.30;;;;;;5047180;28;20540;-93
2021/03/16 14:21:31;;;;;;;4.10;1.60;;;9.50;66.80;;;;;;5040778;28;20391;-94
2021/03/16 14:23:59;;;;;;;4.38;1.17;;;9.40;67.50;;;;;;5040446;28;20307;-93
2021/03/16 14:26:25;;;;;;;5.28;1.33;;;9.50;68.30;;;;;;4978048;28;20065;-95
2021/03/16 14:28:50;;;;;;;2.67;1.17;;;9.60;68.00;;;;;;4959643;28;20404;-95
2021/03/16 14:31:36;;;;;;;3.53;1.08;;;9.80;68.00;;;;;;4959915;28;20039;-96
2021/03/16 14:44:13;;;;;;;2.28;1.17;;;10.30;65.80;;;;;;4972635;28;20035;-95
2021/03/16 14:46:38;;;;;;;4.65;1.85;;;10.40;66.50;;;;;;4961315;28;20042;-95
2021/03/16 14:49:28;;;;;;;2.92;1.42;;;10.40;64.90;;;;;;4976450;28;20038;-96
2021/03/16 14:52:18;;;;;;;10.27;2.97;;;10.50;64.70;;;;;;4990189;28;20049;-95
2021/03/16 14:54:43;;;;;;;3.78;1.60;;;10.40;65.40;;;;;;4963012;28;20100;-92
2021/03/16 14:57:09;;;;;;;2.05;1.23;;;10.30;66.00;;;;;;4963232;28;20042;-92
2021/03/16 14:59:37;;;;;;;7.97;1.13;;;10.20;65.30;;;;;;4975346;28;20072;-93
2021/03/16 15:02:02;;;;;;;4.43;1.35;;;10.20;64.80;;;;;;4959345;28;20035;-96
2021/03/16 15:04:29;;;;;;;3.35;1.17;;;10.10;65.20;;;;;;4949052;28;20053;-90
2021/03/16 15:06:59;;;;;;;4.38;1.10;;;10.10;65.00;;;;;;4966360;28;20039;-94
2021/03/16 15:09:26;;;;;;;3.88;1.00;;;10.00;64.80;;;;;;4963160;28;20411;-93
2021/03/16 15:11:52;;;;;;;2.92;1.58;;;10.00;65.30;;;;;;4962565;28;20038;-92